sensor_id;sensor_type;location;lat;lon;timestamp;temperature;humidity
12053;DHT22;6087;48.982;12.064;2023-02-13T00:01:04;4.60;99.90
12053;DHT22;6087;48.982;12.064;2023-02-13T00:03:33;4.60;99.90
12053;DHT22;6087;48.982;12.064;2023-02-13T00:06:00;4.60;99.90
12053;DHT22;6087;48.982;12.064;2023-02-13T00:08:27;4.60;99.90
12053;DHT22;6087;48.982;12.064;2023-02-13T00:10:54;4.60;99.90
12053;DHT22;6087;48.982;12.064;2023-02-13T00:13:21;4.50;99.90
12053;DHT22;6087;48.982;12.064;2023-02-13T00:15:54;4.50;99.90
12053;DHT22;6087;48.982;12.064;2023-02-13T00:18:21;4.50;99.90
12053;DHT22;6087;48.982;12.064;2023-02-13T00:20:58;4.50;99.90
12053;DHT22;6087;48.982;12.064;2023-02-13T00:23:25;4.50;99.90
12053;DHT22;6087;48.982;12.064;2023-02-13T00:25:52;4.60;99.90
12053;DHT22;6087;48.982;12.064;2023-02-13T00:28:19;4.60;99.90
12053;DHT22;6087;48.982;12.064;2023-02-13T00:30:45;4.50;99.90
12053;DHT22;6087;48.982;12.064;2023-02-13T00:33:12;4.50;99.90
12053;DHT22;6087;48.982;12.064;2023-02-13T00:35:39;4.50;99.90
12053;DHT22;6087;48.982;12.064;2023-02-13T00:38:08;4.50;99.90
12053;DHT22;6087;48.982;12.064;2023-02-13T00:40:35;4.50;99.90
12053;DHT22;6087;48.982;12.064;2023-02-13T00:43:02;4.50;99.90
12053;DHT22;6087;48.982;12.064;2023-02-13T00:45:29;4.50;99.90
12053;DHT22;6087;48.982;12.064;2023-02-13T00:47:56;4.50;99.90
12053;DHT22;6087;48.982;12.064;2023-02-13T00:50:22;4.50;99.90
12053;DHT22;6087;48.982;12.064;2023-02-13T00:52:49;4.50;99.90
12053;DHT22;6087;48.982;12.064;2023-02-13T00:55:18;4.50;99.90
12053;DHT22;6087;48.982;12.064;2023-02-13T00:57:45;4.50;99.90
12053;DHT22;6087;48.982;12.064;2023-02-13T01:00:13;4.40;99.90
12053;DHT22;6087;48.982;12.064;2023-02-13T01:02:40;4.40;99.90
12053;DHT22;6087;48.982;12.064;2023-02-13T01:05:07;4.40;99.90
12053;DHT22;6087;48.982;12.064;2023-02-13T01:07:34;4.50;99.90
12053;DHT22;6087;48.982;12.064;2023-02-13T01:10:01;4.40;99.90
12053;DHT22;6087;48.982;12.064;2023-02-13T01:12:30;4.40;99.90
12053;DHT22;6087;48.982;12.064;2023-02-13T01:14:57;4.40;99.90
12053;DHT22;6087;48.982;12.064;2023-02-13T01:17:23;4.40;99.90
12053;DHT22;6087;48.982;12.064;2023-02-13T01:19:50;4.40;99.90
12053;DHT22;6087;48.982;12.064;2023-02-13T01:22:17;4.40;99.90
12053;DHT22;6087;48.982;12.064;2023-02-13T01:24:44;4.40;99.90
12053;DHT22;6087;48.982;12.064;2023-02-13T01:27:11;4.40;99.90
12053;DHT22;6087;48.982;12.064;2023-02-13T01:29:40;4.30;99.90
12053;DHT22;6087;48.982;12.064;2023-02-13T01:32:07;4.30;99.90
12053;DHT22;6087;48.982;12.064;2023-02-13T01:34:36;4.30;99.90
12053;DHT22;6087;48.982;12.064;2023-02-13T01:37:03;4.30;99.90
12053;DHT22;6087;48.982;12.064;2023-02-13T01:39:31;4.30;99.90
12053;DHT22;6087;48.982;12.064;2023-02-13T01:42:00;4.30;99.90
12053;DHT22;6087;48.982;12.064;2023-02-13T01:44:50;4.30;99.90
12053;DHT22;6087;48.982;12.064;2023-02-13T01:47:24;4.30;99.90
12053;DHT22;6087;48.982;12.064;2023-02-13T01:49:58;4.30;99.90
12053;DHT22;6087;48.982;12.064;2023-02-13T01:52:28;4.30;99.90
12053;DHT22;6087;48.982;12.064;2023-02-13T01:54:55;4.20;99.90
12053;DHT22;6087;48.982;12.064;2023-02-13T01:57:24;4.20;99.90
12053;DHT22;6087;48.982;12.064;2023-02-13T01:59:56;4.20;99.90
12053;DHT22;6087;48.982;12.064;2023-02-13T02:02:24;4.10;99.90
12053;DHT22;6087;48.982;12.064;2023-02-13T02:04:51;4.00;99.90
12053;DHT22;6087;48.982;12.064;2023-02-13T02:07:22;3.90;99.90
12053;DHT22;6087;48.982;12.064;2023-02-13T02:09:52;3.90;99.90
12053;DHT22;6087;48.982;12.064;2023-02-13T02:12:25;3.80;99.90
12053;DHT22;6087;48.982;12.064;2023-02-13T02:14:54;3.70;99.90
12053;DHT22;6087;48.982;12.064;2023-02-13T02:17:24;3.70;99.90
12053;DHT22;6087;48.982;12.064;2023-02-13T02:20:00;3.70;99.90
12053;DHT22;6087;48.982;12.064;2023-02-13T02:28:55;3.60;99.90
12053;DHT22;6087;48.982;12.064;2023-02-13T02:32:06;3.40;99.90
12053;DHT22;6087;48.982;12.064;2023-02-13T02:34:39;3.50;99.90
12053;DHT22;6087;48.982;12.064;2023-02-13T02:37:20;3.40;99.90
12053;DHT22;6087;48.982;12.064;2023-02-13T02:40:00;3.50;99.90
12053;DHT22;6087;48.982;12.064;2023-02-13T02:42:41;3.50;99.90
12053;DHT22;6087;48.982;12.064;2023-02-13T02:45:14;3.50;99.90
12053;DHT22;6087;48.982;12.064;2023-02-13T02:47:50;3.60;99.90
12053;DHT22;6087;48.982;12.064;2023-02-13T02:50:38;3.60;99.90
12053;DHT22;6087;48.982;12.064;2023-02-13T02:53:27;3.60;99.90
12053;DHT22;6087;48.982;12.064;2023-02-13T02:56:00;3.60;99.90
12053;DHT22;6087;48.982;12.064;2023-02-13T02:58:32;3.60;99.90
12053;DHT22;6087;48.982;12.064;2023-02-13T03:01:25;3.60;99.90
12053;DHT22;6087;48.982;12.064;2023-02-13T03:04:17;3.60;99.90
12053;DHT22;6087;48.982;12.064;2023-02-13T03:07:06;3.60;99.90
12053;DHT22;6087;48.982;12.064;2023-02-13T03:09:39;3.60;99.90
12053;DHT22;6087;48.982;12.064;2023-02-13T03:12:33;3.60;99.90
12053;DHT22;6087;48.982;12.064;2023-02-13T03:15:19;3.60;99.90
12053;DHT22;6087;48.982;12.064;2023-02-13T03:17:46;3.60;99.90
12053;DHT22;6087;48.982;12.064;2023-02-13T03:20:41;3.60;99.90
12053;DHT22;6087;48.982;12.064;2023-02-13T03:23:35;3.60;99.90
12053;DHT22;6087;48.982;12.064;2023-02-13T03:26:26;3.60;99.90
12053;DHT22;6087;48.982;12.064;2023-02-13T03:29:04;3.60;99.90
12053;DHT22;6087;48.982;12.064;2023-02-13T03:31:54;3.60;99.90
12053;DHT22;6087;48.982;12.064;2023-02-13T03:34:34;3.60;99.90
12053;DHT22;6087;48.982;12.064;2023-02-13T03:37:24;3.60;99.90
12053;DHT22;6087;48.982;12.064;2023-02-13T03:40:14;3.60;99.90
12053;DHT22;6087;48.982;12.064;2023-02-13T03:42:46;3.60;99.90
12053;DHT22;6087;48.982;12.064;2023-02-13T03:45:26;3.60;99.90
12053;DHT22;6087;48.982;12.064;2023-02-13T03:48:14;3.60;99.90
12053;DHT22;6087;48.982;12.064;2023-02-13T03:50:56;3.60;99.90
12053;DHT22;6087;48.982;12.064;2023-02-13T03:53:28;3.50;99.90
12053;DHT22;6087;48.982;12.064;2023-02-13T03:55:57;3.50;99.90
12053;DHT22;6087;48.982;12.064;2023-02-13T03:58:44;3.50;99.90
12053;DHT22;6087;48.982;12.064;2023-02-13T04:01:31;3.50;99.90
12053;DHT22;6087;48.982;12.064;2023-02-13T04:04:04;3.50;99.90
12053;DHT22;6087;48.982;12.064;2023-02-13T04:06:37;3.50;99.90
12053;DHT22;6087;48.982;12.064;2023-02-13T04:09:07;3.50;99.90
12053;DHT22;6087;48.982;12.064;2023-02-13T04:11:38;3.60;99.90
12053;DHT22;6087;48.982;12.064;2023-02-13T04:14:10;3.60;99.90
12053;DHT22;6087;48.982;12.064;2023-02-13T04:16:42;3.60;99.90
12053;DHT22;6087;48.982;12.064;2023-02-13T04:19:10;3.60;99.90
12053;DHT22;6087;48.982;12.064;2023-02-13T04:21:40;3.50;99.90
12053;DHT22;6087;48.982;12.064;2023-02-13T04:24:09;3.60;99.90
12053;DHT22;6087;48.982;12.064;2023-02-13T04:26:38;3.60;99.90
12053;DHT22;6087;48.982;12.064;2023-02-13T04:29:05;3.60;99.90
12053;DHT22;6087;48.982;12.064;2023-02-13T04:31:33;3.60;99.90
12053;DHT22;6087;48.982;12.064;2023-02-13T04:34:00;3.60;99.90
12053;DHT22;6087;48.982;12.064;2023-02-13T04:36:27;3.60;99.90
12053;DHT22;6087;48.982;12.064;2023-02-13T04:38:54;3.60;99.90
12053;DHT22;6087;48.982;12.064;2023-02-13T04:41:22;3.50;99.90
12053;DHT22;6087;48.982;12.064;2023-02-13T04:43:49;3.50;99.90
12053;DHT22;6087;48.982;12.064;2023-02-13T04:46:17;3.50;99.90
12053;DHT22;6087;48.982;12.064;2023-02-13T04:48:44;3.60;99.90
12053;DHT22;6087;48.982;12.064;2023-02-13T04:51:11;3.60;99.90
12053;DHT22;6087;48.982;12.064;2023-02-13T04:53:38;3.60;99.90
12053;DHT22;6087;48.982;12.064;2023-02-13T04:56:06;3.60;99.90
12053;DHT22;6087;48.982;12.064;2023-02-13T04:58:34;3.60;99.90
12053;DHT22;6087;48.982;12.064;2023-02-13T05:01:01;3.60;99.90
12053;DHT22;6087;48.982;12.064;2023-02-13T05:03:28;3.50;99.90
12053;DHT22;6087;48.982;12.064;2023-02-13T05:05:55;3.60;99.90
12053;DHT22;6087;48.982;12.064;2023-02-13T05:08:22;3.60;99.90
12053;DHT22;6087;48.982;12.064;2023-02-13T05:10:49;3.60;99.90
12053;DHT22;6087;48.982;12.064;2023-02-13T05:13:16;3.60;99.90
12053;DHT22;6087;48.982;12.064;2023-02-13T05:15:48;3.70;99.90
12053;DHT22;6087;48.982;12.064;2023-02-13T05:18:17;3.70;99.90
12053;DHT22;6087;48.982;12.064;2023-02-13T05:20:44;3.70;99.90
12053;DHT22;6087;48.982;12.064;2023-02-13T05:23:31;3.70;99.90
12053;DHT22;6087;48.982;12.064;2023-02-13T05:25:57;3.70;99.90
12053;DHT22;6087;48.982;12.064;2023-02-13T05:28:24;3.70;99.90
12053;DHT22;6087;48.982;12.064;2023-02-13T05:31:13;3.60;99.90
12053;DHT22;6087;48.982;12.064;2023-02-13T05:33:41;3.60;99.90
12053;DHT22;6087;48.982;12.064;2023-02-13T05:36:08;3.60;99.90
12053;DHT22;6087;48.982;12.064;2023-02-13T05:38:40;3.70;99.90
12053;DHT22;6087;48.982;12.064;2023-02-13T05:41:07;3.70;99.90
12053;DHT22;6087;48.982;12.064;2023-02-13T05:43:34;3.70;99.90
12053;DHT22;6087;48.982;12.064;2023-02-13T05:46:06;3.70;99.90
12053;DHT22;6087;48.982;12.064;2023-02-13T05:48:43;3.70;99.90
12053;DHT22;6087;48.982;12.064;2023-02-13T05:51:10;3.60;99.90
12053;DHT22;6087;48.982;12.064;2023-02-13T05:53:37;3.70;99.90
12053;DHT22;6087;48.982;12.064;2023-02-13T05:56:05;3.70;99.90
12053;DHT22;6087;48.982;12.064;2023-02-13T05:58:35;3.60;99.90
12053;DHT22;6087;48.982;12.064;2023-02-13T06:01:02;3.70;99.90
12053;DHT22;6087;48.982;12.064;2023-02-13T06:03:30;3.70;99.90
12053;DHT22;6087;48.982;12.064;2023-02-13T06:05:59;3.70;99.90
12053;DHT22;6087;48.982;12.064;2023-02-13T06:08:26;3.60;99.90
12053;DHT22;6087;48.982;12.064;2023-02-13T06:10:53;3.60;99.90
12053;DHT22;6087;48.982;12.064;2023-02-13T06:13:20;3.60;99.90
12053;DHT22;6087;48.982;12.064;2023-02-13T06:15:52;3.70;99.90
12053;DHT22;6087;48.982;12.064;2023-02-13T06:18:19;3.70;99.90
12053;DHT22;6087;48.982;12.064;2023-02-13T06:20:46;3.70;99.90
12053;DHT22;6087;48.982;12.064;2023-02-13T06:23:14;3.70;99.90
12053;DHT22;6087;48.982;12.064;2023-02-13T06:25:41;3.70;99.90
12053;DHT22;6087;48.982;12.064;2023-02-13T06:28:09;3.80;99.90
12053;DHT22;6087;48.982;12.064;2023-02-13T06:30:35;3.80;99.90
12053;DHT22;6087;48.982;12.064;2023-02-13T06:33:02;3.80;99.90
12053;DHT22;6087;48.982;12.064;2023-02-13T06:35:29;3.80;99.90
12053;DHT22;6087;48.982;12.064;2023-02-13T06:38:04;3.80;99.90
12053;DHT22;6087;48.982;12.064;2023-02-13T06:40:33;3.80;99.90
12053;DHT22;6087;48.982;12.064;2023-02-13T06:43:06;3.80;99.90
12053;DHT22;6087;48.982;12.064;2023-02-13T06:45:33;3.80;99.90
12053;DHT22;6087;48.982;12.064;2023-02-13T06:48:00;3.80;99.90
12053;DHT22;6087;48.982;12.064;2023-02-13T06:50:30;3.80;99.90
12053;DHT22;6087;48.982;12.064;2023-02-13T06:52:56;3.80;99.90
12053;DHT22;6087;48.982;12.064;2023-02-13T06:55:23;3.80;99.90
12053;DHT22;6087;48.982;12.064;2023-02-13T06:57:52;3.80;99.90
12053;DHT22;6087;48.982;12.064;2023-02-13T07:00:19;3.70;99.90
12053;DHT22;6087;48.982;12.064;2023-02-13T07:02:47;3.70;99.90
12053;DHT22;6087;48.982;12.064;2023-02-13T07:05:14;3.70;99.90
12053;DHT22;6087;48.982;12.064;2023-02-13T07:07:41;3.70;99.90
12053;DHT22;6087;48.982;12.064;2023-02-13T07:10:10;3.60;99.90
12053;DHT22;6087;48.982;12.064;2023-02-13T07:12:37;3.70;99.90
12053;DHT22;6087;48.982;12.064;2023-02-13T07:15:07;3.60;99.90
12053;DHT22;6087;48.982;12.064;2023-02-13T07:17:34;3.60;99.90
12053;DHT22;6087;48.982;12.064;2023-02-13T07:20:01;3.70;99.90
12053;DHT22;6087;48.982;12.064;2023-02-13T07:22:30;3.70;99.90
12053;DHT22;6087;48.982;12.064;2023-02-13T07:24:57;3.80;99.90
12053;DHT22;6087;48.982;12.064;2023-02-13T07:27:24;3.80;99.90
12053;DHT22;6087;48.982;12.064;2023-02-13T07:29:54;3.80;99.90
12053;DHT22;6087;48.982;12.064;2023-02-13T07:32:23;3.80;99.90
12053;DHT22;6087;48.982;12.064;2023-02-13T07:34:50;3.80;99.90
12053;DHT22;6087;48.982;12.064;2023-02-13T07:37:17;3.80;99.90
12053;DHT22;6087;48.982;12.064;2023-02-13T07:39:43;3.70;99.90
12053;DHT22;6087;48.982;12.064;2023-02-13T07:42:10;3.60;99.90
12053;DHT22;6087;48.982;12.064;2023-02-13T07:44:37;3.60;99.90
12053;DHT22;6087;48.982;12.064;2023-02-13T07:47:04;3.60;99.90
12053;DHT22;6087;48.982;12.064;2023-02-13T07:49:32;3.60;99.90
12053;DHT22;6087;48.982;12.064;2023-02-13T07:52:01;3.60;99.90
12053;DHT22;6087;48.982;12.064;2023-02-13T07:54:31;3.60;99.90
12053;DHT22;6087;48.982;12.064;2023-02-13T07:56:58;3.60;99.90
12053;DHT22;6087;48.982;12.064;2023-02-13T07:59:25;3.60;99.90
12053;DHT22;6087;48.982;12.064;2023-02-13T08:01:52;3.40;99.90
12053;DHT22;6087;48.982;12.064;2023-02-13T08:04:19;3.40;99.90
12053;DHT22;6087;48.982;12.064;2023-02-13T08:06:50;3.50;99.90
12053;DHT22;6087;48.982;12.064;2023-02-13T08:09:20;3.60;99.90
12053;DHT22;6087;48.982;12.064;2023-02-13T08:12:06;3.50;99.90
12053;DHT22;6087;48.982;12.064;2023-02-13T08:14:34;3.40;99.90
12053;DHT22;6087;48.982;12.064;2023-02-13T08:17:01;3.40;99.90
12053;DHT22;6087;48.982;12.064;2023-02-13T08:19:28;3.50;99.90
12053;DHT22;6087;48.982;12.064;2023-02-13T08:21:57;3.60;99.90
12053;DHT22;6087;48.982;12.064;2023-02-13T08:24:23;3.60;99.90
12053;DHT22;6087;48.982;12.064;2023-02-13T08:26:50;3.50;99.90
12053;DHT22;6087;48.982;12.064;2023-02-13T08:29:17;3.50;99.90
12053;DHT22;6087;48.982;12.064;2023-02-13T08:31:44;3.60;99.90
12053;DHT22;6087;48.982;12.064;2023-02-13T08:34:11;3.40;99.90
12053;DHT22;6087;48.982;12.064;2023-02-13T08:36:38;3.50;99.90
12053;DHT22;6087;48.982;12.064;2023-02-13T08:39:08;3.50;99.90
12053;DHT22;6087;48.982;12.064;2023-02-13T08:41:35;3.50;99.90
12053;DHT22;6087;48.982;12.064;2023-02-13T08:44:02;3.50;99.90
12053;DHT22;6087;48.982;12.064;2023-02-13T08:46:29;3.60;99.90
12053;DHT22;6087;48.982;12.064;2023-02-13T08:48:56;3.50;99.90
12053;DHT22;6087;48.982;12.064;2023-02-13T08:51:23;3.50;99.90
12053;DHT22;6087;48.982;12.064;2023-02-13T08:53:50;3.60;99.90
12053;DHT22;6087;48.982;12.064;2023-02-13T08:56:20;3.60;99.90
12053;DHT22;6087;48.982;12.064;2023-02-13T08:58:47;3.60;99.90
12053;DHT22;6087;48.982;12.064;2023-02-13T09:01:15;3.70;99.90
12053;DHT22;6087;48.982;12.064;2023-02-13T09:03:42;3.60;99.90
12053;DHT22;6087;48.982;12.064;2023-02-13T09:06:09;3.60;99.90
12053;DHT22;6087;48.982;12.064;2023-02-13T09:08:36;3.60;99.90
12053;DHT22;6087;48.982;12.064;2023-02-13T09:11:04;3.70;99.90
12053;DHT22;6087;48.982;12.064;2023-02-13T09:13:34;3.60;99.90
12053;DHT22;6087;48.982;12.064;2023-02-13T09:16:03;3.60;99.90
12053;DHT22;6087;48.982;12.064;2023-02-13T09:18:31;3.70;99.90
12053;DHT22;6087;48.982;12.064;2023-02-13T09:20:59;3.70;99.90
12053;DHT22;6087;48.982;12.064;2023-02-13T09:23:29;3.80;99.90
12053;DHT22;6087;48.982;12.064;2023-02-13T09:25:58;3.70;99.90
12053;DHT22;6087;48.982;12.064;2023-02-13T09:28:25;3.60;99.90
12053;DHT22;6087;48.982;12.064;2023-02-13T09:30:53;3.60;99.90
12053;DHT22;6087;48.982;12.064;2023-02-13T09:33:26;3.70;99.90
12053;DHT22;6087;48.982;12.064;2023-02-13T09:35:53;3.50;99.90
12053;DHT22;6087;48.982;12.064;2023-02-13T09:38:19;3.50;99.90
12053;DHT22;6087;48.982;12.064;2023-02-13T09:40:50;3.50;99.90
12053;DHT22;6087;48.982;12.064;2023-02-13T09:43:27;3.60;99.90
12053;DHT22;6087;48.982;12.064;2023-02-13T09:45:58;3.60;99.90
12053;DHT22;6087;48.982;12.064;2023-02-13T09:48:29;3.70;99.90
12053;DHT22;6087;48.982;12.064;2023-02-13T09:50:57;3.70;99.90
12053;DHT22;6087;48.982;12.064;2023-02-13T09:53:33;3.70;99.90
12053;DHT22;6087;48.982;12.064;2023-02-13T09:56:12;3.70;99.90
12053;DHT22;6087;48.982;12.064;2023-02-13T09:58:43;3.70;99.90
12053;DHT22;6087;48.982;12.064;2023-02-13T10:01:24;3.70;99.90
12053;DHT22;6087;48.982;12.064;2023-02-13T10:04:12;3.80;99.90
12053;DHT22;6087;48.982;12.064;2023-02-13T10:06:44;3.90;99.90
12053;DHT22;6087;48.982;12.064;2023-02-13T10:09:20;3.80;99.90
12053;DHT22;6087;48.982;12.064;2023-02-13T10:12:19;3.80;99.90
12053;DHT22;6087;48.982;12.064;2023-02-13T10:14:55;4.00;99.90
12053;DHT22;6087;48.982;12.064;2023-02-13T10:17:27;4.00;99.90
12053;DHT22;6087;48.982;12.064;2023-02-13T10:19:58;4.00;99.90
12053;DHT22;6087;48.982;12.064;2023-02-13T10:22:32;4.00;99.90
12053;DHT22;6087;48.982;12.064;2023-02-13T10:25:03;4.00;99.90
12053;DHT22;6087;48.982;12.064;2023-02-13T10:27:34;4.00;99.90
12053;DHT22;6087;48.982;12.064;2023-02-13T10:30:05;4.10;99.90
12053;DHT22;6087;48.982;12.064;2023-02-13T10:32:51;4.10;99.90
12053;DHT22;6087;48.982;12.064;2023-02-13T10:35:36;4.20;99.90
12053;DHT22;6087;48.982;12.064;2023-02-13T10:38:12;4.30;99.90
12053;DHT22;6087;48.982;12.064;2023-02-13T10:40:59;4.30;99.90
12053;DHT22;6087;48.982;12.064;2023-02-13T10:43:36;4.30;99.90
12053;DHT22;6087;48.982;12.064;2023-02-13T10:46:10;4.30;99.90
12053;DHT22;6087;48.982;12.064;2023-02-13T10:49:02;4.40;99.90
12053;DHT22;6087;48.982;12.064;2023-02-13T10:51:41;4.40;99.90
12053;DHT22;6087;48.982;12.064;2023-02-13T10:54:22;4.50;99.90
12053;DHT22;6087;48.982;12.064;2023-02-13T10:56:58;4.50;99.90
12053;DHT22;6087;48.982;12.064;2023-02-13T10:59:46;4.50;99.90
12053;DHT22;6087;48.982;12.064;2023-02-13T11:02:22;4.60;99.90
12053;DHT22;6087;48.982;12.064;2023-02-13T11:04:52;4.60;99.90
12053;DHT22;6087;48.982;12.064;2023-02-13T11:07:23;4.60;99.90
12053;DHT22;6087;48.982;12.064;2023-02-13T11:09:54;4.70;99.90
12053;DHT22;6087;48.982;12.064;2023-02-13T11:12:27;4.70;99.90
12053;DHT22;6087;48.982;12.064;2023-02-13T11:14:55;4.80;99.90
12053;DHT22;6087;48.982;12.064;2023-02-13T11:17:23;4.70;99.90
12053;DHT22;6087;48.982;12.064;2023-02-13T11:19:54;4.80;99.90
12053;DHT22;6087;48.982;12.064;2023-02-13T11:22:30;4.90;99.90
12053;DHT22;6087;48.982;12.064;2023-02-13T11:25:01;4.90;99.90
12053;DHT22;6087;48.982;12.064;2023-02-13T11:27:31;5.00;99.90
12053;DHT22;6087;48.982;12.064;2023-02-13T11:30:00;4.90;99.90
12053;DHT22;6087;48.982;12.064;2023-02-13T11:32:28;4.90;99.90
12053;DHT22;6087;48.982;12.064;2023-02-13T11:34:57;5.00;99.90
12053;DHT22;6087;48.982;12.064;2023-02-13T11:37:31;5.00;99.90
12053;DHT22;6087;48.982;12.064;2023-02-13T11:39:59;5.00;99.90
12053;DHT22;6087;48.982;12.064;2023-02-13T11:42:42;5.10;99.90
12053;DHT22;6087;48.982;12.064;2023-02-13T11:45:20;5.20;99.90
12053;DHT22;6087;48.982;12.064;2023-02-13T11:47:48;5.30;99.90
12053;DHT22;6087;48.982;12.064;2023-02-13T11:50:23;5.40;99.90
12053;DHT22;6087;48.982;12.064;2023-02-13T11:52:55;5.40;99.90
12053;DHT22;6087;48.982;12.064;2023-02-13T11:55:26;5.50;99.90
12053;DHT22;6087;48.982;12.064;2023-02-13T11:57:58;5.50;99.90
12053;DHT22;6087;48.982;12.064;2023-02-13T12:00:30;5.60;99.90
12053;DHT22;6087;48.982;12.064;2023-02-13T12:02:59;5.60;99.90
12053;DHT22;6087;48.982;12.064;2023-02-13T12:05:28;5.60;99.90
12053;DHT22;6087;48.982;12.064;2023-02-13T12:07:59;5.60;99.90
12053;DHT22;6087;48.982;12.064;2023-02-13T12:10:28;5.60;99.90
12053;DHT22;6087;48.982;12.064;2023-02-13T12:12:57;5.70;99.90
12053;DHT22;6087;48.982;12.064;2023-02-13T12:15:25;5.70;99.90
12053;DHT22;6087;48.982;12.064;2023-02-13T12:18:02;5.80;99.90
12053;DHT22;6087;48.982;12.064;2023-02-13T12:20:39;5.80;99.90
12053;DHT22;6087;48.982;12.064;2023-02-13T12:23:19;5.90;99.90
12053;DHT22;6087;48.982;12.064;2023-02-13T12:26:06;5.90;99.90
12053;DHT22;6087;48.982;12.064;2023-02-13T12:28:45;5.90;99.90
12053;DHT22;6087;48.982;12.064;2023-02-13T12:31:39;6.00;99.90
12053;DHT22;6087;48.982;12.064;2023-02-13T12:37:21;6.00;99.90
12053;DHT22;6087;48.982;12.064;2023-02-13T12:40:01;6.10;99.90
12053;DHT22;6087;48.982;12.064;2023-02-13T12:42:45;6.10;99.90
12053;DHT22;6087;48.982;12.064;2023-02-13T12:45:27;6.10;99.90
12053;DHT22;6087;48.982;12.064;2023-02-13T12:48:08;6.20;99.90
12053;DHT22;6087;48.982;12.064;2023-02-13T12:50:55;6.20;99.90
12053;DHT22;6087;48.982;12.064;2023-02-13T12:53:50;6.30;99.90
12053;DHT22;6087;48.982;12.064;2023-02-13T12:56:31;6.30;99.90
12053;DHT22;6087;48.982;12.064;2023-02-13T12:59:08;6.40;99.90
12053;DHT22;6087;48.982;12.064;2023-02-13T13:01:49;6.40;99.90
12053;DHT22;6087;48.982;12.064;2023-02-13T13:04:25;6.50;99.90
12053;DHT22;6087;48.982;12.064;2023-02-13T13:07:03;6.50;99.90
12053;DHT22;6087;48.982;12.064;2023-02-13T13:09:51;6.50;99.90
12053;DHT22;6087;48.982;12.064;2023-02-13T13:12:31;6.60;99.90
12053;DHT22;6087;48.982;12.064;2023-02-13T13:15:09;6.60;99.90
12053;DHT22;6087;48.982;12.064;2023-02-13T13:17:49;6.70;99.90
12053;DHT22;6087;48.982;12.064;2023-02-13T13:20:34;6.70;99.70
12053;DHT22;6087;48.982;12.064;2023-02-13T13:23:07;6.70;99.90
12053;DHT22;6087;48.982;12.064;2023-02-13T13:25:44;6.70;99.90
12053;DHT22;6087;48.982;12.064;2023-02-13T13:28:16;6.70;99.50
12053;DHT22;6087;48.982;12.064;2023-02-13T13:30:44;6.80;99.70
12053;DHT22;6087;48.982;12.064;2023-02-13T13:33:14;6.80;99.80
12053;DHT22;6087;48.982;12.064;2023-02-13T13:35:57;6.90;98.90
12053;DHT22;6087;48.982;12.064;2023-02-13T13:38:37;6.90;99.30
12053;DHT22;6087;48.982;12.064;2023-02-13T13:41:11;7.00;98.70
12053;DHT22;6087;48.982;12.064;2023-02-13T13:43:51;7.00;98.20
12053;DHT22;6087;48.982;12.064;2023-02-13T13:46:31;7.00;97.90
12053;DHT22;6087;48.982;12.064;2023-02-13T13:49:20;7.10;97.60
12053;DHT22;6087;48.982;12.064;2023-02-13T13:51:50;7.10;98.60
12053;DHT22;6087;48.982;12.064;2023-02-13T13:54:34;7.10;97.50
12053;DHT22;6087;48.982;12.064;2023-02-13T13:57:09;7.10;97.10
12053;DHT22;6087;48.982;12.064;2023-02-13T14:00:00;7.10;97.10
12053;DHT22;6087;48.982;12.064;2023-02-13T14:02:45;7.20;97.00
12053;DHT22;6087;48.982;12.064;2023-02-13T14:05:22;7.10;96.40
12053;DHT22;6087;48.982;12.064;2023-02-13T14:07:51;7.10;96.40
12053;DHT22;6087;48.982;12.064;2023-02-13T14:10:57;7.10;96.90
12053;DHT22;6087;48.982;12.064;2023-02-13T14:13:34;7.10;96.00
12053;DHT22;6087;48.982;12.064;2023-02-13T14:16:02;7.10;95.30
12053;DHT22;6087;48.982;12.064;2023-02-13T14:18:30;7.10;95.20
12053;DHT22;6087;48.982;12.064;2023-02-13T14:21:00;7.10;95.10
12053;DHT22;6087;48.982;12.064;2023-02-13T14:23:43;7.10;94.90
12053;DHT22;6087;48.982;12.064;2023-02-13T14:26:35;7.10;95.50
12053;DHT22;6087;48.982;12.064;2023-02-13T14:29:29;7.10;95.00
12053;DHT22;6087;48.982;12.064;2023-02-13T14:32:20;7.10;95.00
12053;DHT22;6087;48.982;12.064;2023-02-13T14:34:55;7.10;94.40
12053;DHT22;6087;48.982;12.064;2023-02-13T14:37:36;7.00;94.50
12053;DHT22;6087;48.982;12.064;2023-02-13T14:43:30;7.00;94.30
12053;DHT22;6087;48.982;12.064;2023-02-13T14:46:07;7.00;94.40
12053;DHT22;6087;48.982;12.064;2023-02-13T14:48:40;6.90;94.10
12053;DHT22;6087;48.982;12.064;2023-02-13T14:51:16;6.90;93.80
12053;DHT22;6087;48.982;12.064;2023-02-13T14:53:57;6.90;93.80
12053;DHT22;6087;48.982;12.064;2023-02-13T14:56:25;6.90;93.70
12053;DHT22;6087;48.982;12.064;2023-02-13T14:58:59;6.90;93.50
12053;DHT22;6087;48.982;12.064;2023-02-13T15:01:43;6.90;93.80
12053;DHT22;6087;48.982;12.064;2023-02-13T15:04:16;6.80;93.70
12053;DHT22;6087;48.982;12.064;2023-02-13T15:06:51;6.80;93.80
12053;DHT22;6087;48.982;12.064;2023-02-13T15:09:37;6.80;93.60
12053;DHT22;6087;48.982;12.064;2023-02-13T15:12:24;6.80;93.60
12053;DHT22;6087;48.982;12.064;2023-02-13T15:14:51;6.80;93.70
12053;DHT22;6087;48.982;12.064;2023-02-13T15:17:23;6.80;93.80
12053;DHT22;6087;48.982;12.064;2023-02-13T15:19:57;6.70;94.10
12053;DHT22;6087;48.982;12.064;2023-02-13T15:22:29;6.70;94.40
12053;DHT22;6087;48.982;12.064;2023-02-13T15:25:07;6.70;94.50
12053;DHT22;6087;48.982;12.064;2023-02-13T15:27:39;6.70;94.70
12053;DHT22;6087;48.982;12.064;2023-02-13T15:30:22;6.60;94.80
12053;DHT22;6087;48.982;12.064;2023-02-13T15:33:00;6.70;95.00
12053;DHT22;6087;48.982;12.064;2023-02-13T15:35:29;6.70;95.10
12053;DHT22;6087;48.982;12.064;2023-02-13T15:37:57;6.60;95.30
12053;DHT22;6087;48.982;12.064;2023-02-13T15:40:30;6.60;95.20
12053;DHT22;6087;48.982;12.064;2023-02-13T15:42:59;6.60;95.40
12053;DHT22;6087;48.982;12.064;2023-02-13T15:45:27;6.60;95.60
12053;DHT22;6087;48.982;12.064;2023-02-13T15:47:56;6.50;95.90
12053;DHT22;6087;48.982;12.064;2023-02-13T15:50:28;6.50;96.00
12053;DHT22;6087;48.982;12.064;2023-02-13T15:52:57;6.50;95.90
12053;DHT22;6087;48.982;12.064;2023-02-13T15:55:27;6.50;96.00
12053;DHT22;6087;48.982;12.064;2023-02-13T15:57:57;6.50;96.00
12053;DHT22;6087;48.982;12.064;2023-02-13T16:00:27;6.50;96.10
12053;DHT22;6087;48.982;12.064;2023-02-13T16:03:00;6.40;96.00
12053;DHT22;6087;48.982;12.064;2023-02-13T16:05:33;6.40;95.90
12053;DHT22;6087;48.982;12.064;2023-02-13T16:10:48;6.40;96.10
12053;DHT22;6087;48.982;12.064;2023-02-13T16:13:17;6.40;96.00
12053;DHT22;6087;48.982;12.064;2023-02-13T16:15:52;6.30;96.00
12053;DHT22;6087;48.982;12.064;2023-02-13T16:18:21;6.30;95.90
12053;DHT22;6087;48.982;12.064;2023-02-13T16:20:54;6.30;95.90
12053;DHT22;6087;48.982;12.064;2023-02-13T16:23:23;6.30;95.90
12053;DHT22;6087;48.982;12.064;2023-02-13T16:25:50;6.30;95.90
12053;DHT22;6087;48.982;12.064;2023-02-13T16:28:21;6.30;96.00
12053;DHT22;6087;48.982;12.064;2023-02-13T16:30:56;6.30;96.00
12053;DHT22;6087;48.982;12.064;2023-02-13T16:33:31;6.30;96.20
12053;DHT22;6087;48.982;12.064;2023-02-13T16:36:18;6.20;96.00